Time;durP1;ratioP1;P1;durP2;ratioP2;P2;SDS_P1;SDS_P2;PMS_P1;PMS_P2;Temp;Humidity;BMP_temperature;BMP_pressure;BME280_temperature;BME280_humidity;BME280_pressure;Samples;Min_cycle;Max_cycle;Signal;HPM_P1;HPM_P2
2024/04/19 00:01:03;;;;;;;6.20;2.50;;;10.60;82.00;;;;;;5528264;25;20525;-56
2024/04/19 00:03:31;;;;;;;3.80;2.10;;;10.70;82.40;;;;;;5528522;25;20483;-56
2024/04/19 00:06:00;;;;;;;7.50;2.30;;;10.70;82.30;;;;;;5528526;25;20488;-56
2024/04/19 00:08:26;;;;;;;3.77;2.47;;;10.70;82.60;;;;;;5528538;25;20510;-56
2024/04/19 00:10:55;;;;;;;4.53;2.77;;;10.80;83.00;;;;;;5528356;25;20477;-56
2024/04/19 00:13:21;;;;;;;6.17;2.77;;;10.80;83.20;;;;;;5528599;25;20707;-56
2024/04/19 00:15:50;;;;;;;6.40;2.83;;;10.80;83.00;;;;;;5528702;25;20450;-56
2024/04/19 00:18:18;;;;;;;6.73;2.50;;;10.80;83.00;;;;;;5530656;25;20727;-57
2024/04/19 00:20:47;;;;;;;6.57;2.83;;;10.80;83.20;;;;;;5530715;25;21045;-57
2024/04/19 00:23:13;;;;;;;5.60;3.13;;;10.70;83.30;;;;;;5531158;25;20447;-57
2024/04/19 00:25:42;;;;;;;5.83;2.70;;;10.70;84.40;;;;;;5528220;25;20450;-56
2024/04/19 00:28:08;;;;;;;7.20;3.00;;;10.60;84.20;;;;;;5528409;25;20252;-57
2024/04/19 00:30:36;;;;;;;5.90;3.30;;;10.50;84.70;;;;;;5528127;25;20466;-57
2024/04/19 00:33:02;;;;;;;5.43;3.33;;;10.50;86.10;;;;;;5528183;25;20642;-58
2024/04/19 00:35:33;;;;;;;6.03;2.83;;;10.50;86.90;;;;;;5528077;25;20438;-58
2024/04/19 00:38:01;;;;;;;10.23;3.00;;;10.40;86.50;;;;;;5527950;25;20513;-59
2024/04/19 00:40:29;;;;;;;3.77;3.20;;;10.30;88.00;;;;;;5528139;25;20502;-59
2024/04/19 00:42:57;;;;;;;5.27;2.90;;;10.30;89.00;;;;;;5528073;25;20458;-60
2024/04/19 00:45:34;;;;;;;4.40;3.00;;;10.30;89.70;;;;;;5527856;25;20517;-58
2024/04/19 00:48:00;;;;;;;3.77;3.13;;;10.30;90.30;;;;;;5528324;25;20784;-59
2024/04/19 00:50:34;;;;;;;4.07;2.83;;;10.10;88.80;;;;;;5527925;25;20466;-59
2024/04/19 00:53:01;;;;;;;4.70;3.00;;;10.20;88.90;;;;;;5527768;25;20442;-58
2024/04/19 00:55:31;;;;;;;9.30;3.87;;;10.10;90.10;;;;;;5527708;25;20442;-59
2024/04/19 00:57:57;;;;;;;4.90;3.07;;;10.10;90.00;;;;;;5527799;25;20999;-59
2024/04/19 01:00:29;;;;;;;7.00;2.73;;;10.00;90.00;;;;;;5527647;25;20473;-59
2024/04/19 01:02:56;;;;;;;3.67;3.07;;;10.10;90.00;;;;;;5527618;25;20910;-59
2024/04/19 01:05:25;;;;;;;5.13;3.13;;;10.00;89.40;;;;;;5527655;25;20458;-59
2024/04/19 01:07:53;;;;;;;3.70;3.20;;;10.00;90.40;;;;;;5526331;25;20563;-59
2024/04/19 01:10:22;;;;;;;7.10;3.90;;;10.00;90.60;;;;;;5527471;25;21027;-59
2024/04/19 01:12:51;;;;;;;4.77;3.13;;;9.90;91.30;;;;;;5527592;25;20454;-58
2024/04/19 01:15:17;;;;;;;4.57;3.73;;;9.90;91.30;;;;;;5527311;25;20506;-58
2024/04/19 01:17:46;;;;;;;3.53;3.03;;;9.90;91.30;;;;;;5527288;25;20523;-56
2024/04/19 01:20:12;;;;;;;5.83;3.47;;;9.90;91.20;;;;;;5527411;25;20474;-58
2024/04/19 01:22:41;;;;;;;5.30;3.70;;;9.90;91.40;;;;;;5527326;25;20567;-58
2024/04/19 01:25:14;;;;;;;4.00;3.60;;;9.90;92.00;;;;;;5527137;25;20713;-57
2024/04/19 01:27:45;;;;;;;5.50;4.37;;;9.80;92.00;;;;;;5527268;25;20442;-59
2024/04/19 01:30:11;;;;;;;5.70;3.77;;;9.80;92.80;;;;;;5527278;25;20482;-58
2024/04/19 01:32:39;;;;;;;7.40;4.40;;;9.80;93.90;;;;;;5527272;25;20912;-57
2024/04/19 01:35:06;;;;;;;5.77;3.47;;;9.70;94.40;;;;;;5526953;25;20247;-57
2024/04/19 01:37:34;;;;;;;6.37;3.63;;;9.70;95.00;;;;;;5527220;25;20506;-58
2024/04/19 01:40:00;;;;;;;7.03;4.10;;;9.60;95.80;;;;;;5526680;25;20511;-58
2024/04/19 01:42:28;;;;;;;5.50;3.90;;;9.50;96.50;;;;;;5527231;25;20867;-58
2024/04/19 01:44:59;;;;;;;10.03;5.53;;;9.50;97.30;;;;;;5527215;25;20723;-57
2024/04/19 01:47:25;;;;;;;5.43;4.03;;;9.50;97.90;;;;;;5526931;25;20832;-58
2024/04/19 01:49:54;;;;;;;4.50;3.97;;;9.50;97.80;;;;;;5526955;25;20466;-57
2024/04/19 01:52:20;;;;;;;9.00;7.00;;;9.50;98.00;;;;;;5526990;25;20252;-57
2024/04/19 01:54:48;;;;;;;7.37;5.60;;;9.50;98.20;;;;;;5526861;25;20458;-57
2024/04/19 01:57:16;;;;;;;4.93;4.20;;;9.40;98.10;;;;;;5526562;25;20667;-56
2024/04/19 01:59:42;;;;;;;4.83;4.33;;;9.40;98.50;;;;;;5527002;25;20486;-57
2024/04/19 02:02:13;;;;;;;4.90;4.20;;;9.30;98.60;;;;;;5526866;25;20957;-57
2024/04/19 02:04:39;;;;;;;4.17;3.60;;;9.30;99.20;;;;;;5526723;25;20225;-57
2024/04/19 02:07:08;;;;;;;6.30;4.57;;;9.20;99.70;;;;;;5526544;25;20458;-57
2024/04/19 02:09:34;;;;;;;6.20;4.63;;;9.20;99.60;;;;;;5526386;25;20692;-57
2024/04/19 02:12:03;;;;;;;7.50;5.50;;;9.20;99.70;;;;;;5526679;25;20861;-59
2024/04/19 02:14:30;;;;;;;8.00;4.87;;;9.20;99.90;;;;;;5526668;25;20466;-58
2024/04/19 02:16:58;;;;;;;6.03;5.20;;;9.20;99.90;;;;;;5526234;26;20503;-58
2024/04/19 02:19:29;;;;;;;10.17;5.40;;;9.20;99.90;;;;;;5526469;25;20975;-58
2024/04/19 02:21:57;;;;;;;5.90;5.40;;;9.20;99.90;;;;;;5526743;25;20480;-58
2024/04/19 02:24:23;;;;;;;6.13;5.53;;;9.20;99.90;;;;;;5526732;25;20560;-57
2024/04/19 02:26:52;;;;;;;6.80;6.20;;;9.30;99.90;;;;;;5526578;25;20454;-57
2024/04/19 02:32:05;;;;;;;7.20;5.57;;;9.30;99.90;;;;;;5529428;26;20482;-59
2024/04/19 02:34:36;;;;;;;5.20;4.70;;;9.20;99.90;;;;;;5526350;25;21087;-57
2024/04/19 02:37:05;;;;;;;6.37;4.70;;;9.20;99.90;;;;;;5526373;25;20935;-58
2024/04/19 02:39:31;;;;;;;9.10;5.17;;;9.20;99.90;;;;;;5526117;25;20474;-57
2024/04/19 02:41:59;;;;;;;7.40;5.10;;;9.20;99.90;;;;;;5526176;25;20454;-57
2024/04/19 02:44:28;;;;;;;6.13;4.53;;;9.20;99.90;;;;;;5525954;25;20316;-58
2024/04/19 02:46:56;;;;;;;7.40;4.87;;;9.20;99.90;;;;;;5525862;25;20450;-58
2024/04/19 02:49:25;;;;;;;5.87;5.27;;;9.20;99.90;;;;;;5525863;25;20556;-58
2024/04/19 02:51:56;;;;;;;8.67;4.73;;;9.20;99.90;;;;;;5525528;25;20447;-58
2024/04/19 02:54:24;;;;;;;6.03;5.27;;;9.20;99.90;;;;;;5525776;25;20462;-58
2024/04/19 02:56:52;;;;;;;11.43;5.30;;;9.10;99.90;;;;;;5525825;25;20563;-58
2024/04/19 02:59:21;;;;;;;8.23;4.17;;;9.10;99.90;;;;;;5525704;25;20453;-58
2024/04/19 03:01:49;;;;;;;5.50;4.60;;;9.00;99.90;;;;;;5525632;25;20450;-58
2024/04/19 03:04:18;;;;;;;5.80;4.13;;;8.90;99.90;;;;;;5525713;25;20838;-58
2024/04/19 03:06:46;;;;;;;6.03;4.00;;;8.90;99.90;;;;;;5525458;25;20446;-58
2024/04/19 03:09:17;;;;;;;5.37;4.23;;;8.80;99.90;;;;;;5525284;25;20454;-58
2024/04/19 03:11:46;;;;;;;4.33;3.73;;;8.80;99.90;;;;;;5525514;25;20555;-58
2024/04/19 03:14:14;;;;;;;6.30;4.03;;;8.80;99.90;;;;;;5525551;25;20840;-58
2024/04/19 03:16:42;;;;;;;6.33;4.10;;;8.80;99.90;;;;;;5525226;25;20555;-57
2024/04/19 03:19:11;;;;;;;6.73;3.80;;;8.70;99.90;;;;;;5525219;25;20457;-58
2024/04/19 03:21:39;;;;;;;11.03;4.50;;;8.70;99.90;;;;;;5524994;25;20506;-57
2024/04/19 03:24:08;;;;;;;5.83;4.67;;;8.70;99.90;;;;;;5525150;25;20553;-57
2024/04/19 03:26:39;;;;;;;6.93;4.40;;;8.60;99.90;;;;;;5525171;25;20862;-58
2024/04/19 03:29:08;;;;;;;4.87;4.10;;;8.60;99.90;;;;;;5525255;25;20988;-58
2024/04/19 03:31:36;;;;;;;6.13;5.43;;;8.70;99.90;;;;;;5526524;25;20458;-57
2024/04/19 03:34:05;;;;;;;7.23;4.60;;;8.70;99.90;;;;;;5529080;25;20454;-57
2024/04/19 03:36:33;;;;;;;4.53;3.90;;;8.70;99.90;;;;;;5528856;25;21039;-57
2024/04/19 03:39:03;;;;;;;6.87;4.43;;;8.70;99.90;;;;;;5528836;25;20571;-57
2024/04/19 03:41:33;;;;;;;4.60;4.20;;;8.70;99.90;;;;;;5528617;25;20514;-57
2024/04/19 03:46:50;;;;;;;8.63;4.50;;;8.60;99.90;;;;;;5531882;26;21010;-57
2024/04/19 03:49:18;;;;;;;5.47;4.33;;;8.60;99.90;;;;;;5528920;25;20563;-57
2024/04/19 03:51:47;;;;;;;8.50;4.97;;;8.60;99.90;;;;;;5528547;25;20454;-57
2024/04/19 03:54:15;;;;;;;6.73;4.30;;;8.60;99.90;;;;;;5528960;26;20458;-58
2024/04/19 03:56:44;;;;;;;6.60;4.70;;;8.60;99.90;;;;;;5528560;25;20562;-57
2024/04/19 03:59:15;;;;;;;6.97;4.37;;;8.60;99.90;;;;;;5528446;25;20462;-57
2024/04/19 04:01:43;;;;;;;5.17;4.50;;;8.50;99.90;;;;;;5528519;25;20494;-57
2024/04/19 04:04:12;;;;;;;9.87;4.30;;;8.50;99.90;;;;;;5528596;25;20805;-57
2024/04/19 04:06:40;;;;;;;5.13;3.93;;;8.50;99.90;;;;;;5528342;25;20458;-58
2024/04/19 04:09:09;;;;;;;6.67;4.00;;;8.40;99.90;;;;;;5528702;25;20450;-57
2024/04/19 04:11:37;;;;;;;4.60;3.30;;;8.40;99.90;;;;;;5528205;25;20461;-57
2024/04/19 04:14:06;;;;;;;6.03;3.30;;;8.40;99.90;;;;;;5528537;25;20783;-58
2024/04/19 04:16:37;;;;;;;4.30;3.50;;;8.40;99.90;;;;;;5528213;25;20466;-58
2024/04/19 04:19:07;;;;;;;5.47;2.60;;;8.40;99.90;;;;;;5528509;25;20453;-57
2024/04/19 04:21:35;;;;;;;4.23;2.50;;;8.40;99.90;;;;;;5528205;25;21056;-58
2024/04/19 04:24:05;;;;;;;3.10;2.13;;;8.30;99.90;;;;;;5528288;25;20454;-57
2024/04/19 04:26:33;;;;;;;2.93;2.73;;;8.30;99.90;;;;;;5527991;25;20512;-58
2024/04/19 04:29:02;;;;;;;6.60;2.53;;;8.30;99.90;;;;;;5527945;25;20446;-57
2024/04/19 04:31:30;;;;;;;4.03;2.67;;;8.30;99.90;;;;;;5527404;25;20509;-57
2024/04/19 04:34:02;;;;;;;4.40;2.80;;;8.20;99.90;;;;;;5527902;25;20562;-58
2024/04/19 04:36:30;;;;;;;3.40;2.40;;;8.20;99.90;;;;;;5527729;25;20454;-58
2024/04/19 04:38:58;;;;;;;3.90;2.77;;;8.20;99.90;;;;;;5527798;25;20458;-57
2024/04/19 04:41:27;;;;;;;3.40;2.90;;;8.20;99.90;;;;;;5527956;25;20827;-57
2024/04/19 04:43:55;;;;;;;2.80;2.60;;;8.20;99.90;;;;;;5526306;25;20556;-57
2024/04/19 04:46:24;;;;;;;3.47;2.03;;;8.20;99.90;;;;;;5527922;25;20461;-57
2024/04/19 04:48:52;;;;;;;2.30;2.10;;;8.10;99.90;;;;;;5528254;25;20447;-57
2024/04/19 04:51:23;;;;;;;2.83;2.03;;;8.20;99.90;;;;;;5527861;25;20852;-57
2024/04/19 04:53:52;;;;;;;2.37;2.17;;;8.20;99.90;;;;;;5527960;25;20458;-57
2024/04/19 04:56:20;;;;;;;2.30;2.10;;;8.20;99.90;;;;;;5527773;25;20461;-57
2024/04/19 04:58:46;;;;;;;1.87;1.77;;;8.20;99.90;;;;;;5527302;25;20454;-57
2024/04/19 05:01:14;;;;;;;2.20;1.77;;;8.20;99.90;;;;;;5528014;25;20510;-57
2024/04/19 05:03:43;;;;;;;2.60;2.20;;;8.20;99.90;;;;;;5527616;25;20257;-57
2024/04/19 05:06:13;;;;;;;2.30;2.20;;;8.20;99.90;;;;;;5528017;25;20450;-57
2024/04/19 05:08:44;;;;;;;3.43;2.30;;;8.10;99.90;;;;;;5528065;25;20457;-57
2024/04/19 05:11:12;;;;;;;2.17;1.97;;;8.10;99.90;;;;;;5527861;25;20809;-57
2024/04/19 05:13:41;;;;;;;4.90;2.43;;;8.20;99.90;;;;;;5527577;25;20559;-57
2024/04/19 05:16:10;;;;;;;4.10;2.00;;;8.20;99.90;;;;;;5527693;25;20547;-57
2024/04/19 05:18:38;;;;;;;3.03;2.17;;;8.30;99.90;;;;;;5527824;25;20458;-58
2024/04/19 05:21:08;;;;;;;2.80;2.60;;;8.30;99.90;;;;;;5527516;25;20474;-57
2024/04/19 05:23:37;;;;;;;4.83;2.60;;;8.30;99.90;;;;;;5527141;25;20489;-57
2024/04/19 05:26:08;;;;;;;3.83;2.50;;;8.30;99.90;;;;;;5527008;25;20446;-57
2024/04/19 05:28:37;;;;;;;2.97;2.50;;;8.30;99.90;;;;;;5527497;25;20465;-57
2024/04/19 05:31:05;;;;;;;3.20;2.90;;;8.30;99.90;;;;;;5526847;25;21060;-57
2024/04/19 05:33:34;;;;;;;3.03;2.33;;;8.30;99.90;;;;;;5527214;25;20462;-57
2024/04/19 05:36:02;;;;;;;2.60;2.40;;;8.30;99.90;;;;;;5526982;25;20537;-58
2024/04/19 05:38:31;;;;;;;5.90;2.73;;;8.20;99.90;;;;;;5527103;25;20572;-58
2024/04/19 05:40:59;;;;;;;2.77;2.57;;;8.20;99.90;;;;;;5527008;26;20453;-57
2024/04/19 05:43:30;;;;;;;4.27;2.33;;;8.20;99.90;;;;;;5527459;25;20588;-57
2024/04/19 05:45:59;;;;;;;3.10;2.50;;;8.20;99.90;;;;;;5527434;25;20590;-57
2024/04/19 05:48:27;;;;;;;3.57;2.53;;;8.10;99.90;;;;;;5527282;25;20572;-57
2024/04/19 05:50:56;;;;;;;3.03;2.67;;;8.20;99.90;;;;;;5526943;25;20474;-57
2024/04/19 05:53:24;;;;;;;3.87;2.40;;;8.20;99.90;;;;;;5527012;25;20553;-57
2024/04/19 05:55:52;;;;;;;3.83;2.90;;;8.30;99.90;;;;;;5526976;25;20494;-58
2024/04/19 05:58:22;;;;;;;3.03;2.53;;;8.30;99.90;;;;;;5527037;25;20445;-58
2024/04/19 06:00:53;;;;;;;3.13;2.83;;;8.30;99.90;;;;;;5526849;25;20878;-58
2024/04/19 06:03:22;;;;;;;2.90;2.70;;;8.40;99.90;;;;;;5527052;25;20536;-57
2024/04/19 06:05:50;;;;;;;5.60;2.63;;;8.40;99.90;;;;;;5526637;25;20451;-57
2024/04/19 06:08:19;;;;;;;4.77;2.97;;;8.40;99.90;;;;;;5526802;25;20457;-58
2024/04/19 06:10:47;;;;;;;3.13;2.83;;;8.40;99.90;;;;;;5526294;25;20462;-59
2024/04/19 06:13:16;;;;;;;2.80;2.60;;;8.30;99.90;;;;;;5526532;25;20967;-57
2024/04/19 06:15:45;;;;;;;3.27;2.43;;;8.30;99.90;;;;;;5526541;25;20501;-58
2024/04/19 06:18:16;;;;;;;3.50;2.50;;;8.30;99.90;;;;;;5526689;25;20458;-58
2024/04/19 06:20:44;;;;;;;3.10;2.67;;;8.40;99.90;;;;;;5526496;25;20475;-58
2024/04/19 06:23:13;;;;;;;7.17;3.00;;;8.40;99.90;;;;;;5526578;25;20438;-58
2024/04/19 06:25:41;;;;;;;4.47;2.53;;;8.50;99.90;;;;;;5526266;25;20458;-58
2024/04/19 06:28:10;;;;;;;2.83;2.63;;;8.50;99.90;;;;;;5526548;25;20442;-58
2024/04/19 06:30:38;;;;;;;3.63;3.33;;;8.50;99.90;;;;;;5526196;25;20506;-58
2024/04/19 06:33:07;;;;;;;4.33;2.73;;;8.50;99.90;;;;;;5526405;25;20458;-58
2024/04/19 06:35:38;;;;;;;3.53;3.03;;;8.50;99.90;;;;;;5526055;25;20502;-58
2024/04/19 06:38:07;;;;;;;3.30;3.00;;;8.50;99.90;;;;;;5525969;25;20446;-58
2024/04/19 06:40:37;;;;;;;3.27;3.00;;;8.60;99.90;;;;;;5525720;25;20522;-58
2024/04/19 06:43:06;;;;;;;4.50;4.10;;;8.60;99.90;;;;;;5525861;25;20499;-58
2024/04/19 06:45:37;;;;;;;5.30;3.40;;;8.70;99.90;;;;;;5525750;25;20498;-56
2024/04/19 06:48:06;;;;;;;3.23;3.03;;;8.70;99.90;;;;;;5525603;25;20458;-56
2024/04/19 06:50:37;;;;;;;3.60;3.30;;;8.70;99.90;;;;;;5525737;25;20564;-56
2024/04/19 06:53:06;;;;;;;3.40;3.10;;;8.70;99.90;;;;;;5525265;25;20575;-58
2024/04/19 06:55:35;;;;;;;3.57;3.30;;;8.70;99.90;;;;;;5525815;25;20795;-58
2024/04/19 06:58:03;;;;;;;3.97;3.67;;;8.70;99.90;;;;;;5525523;25;20500;-58
2024/04/19 07:00:32;;;;;;;3.97;3.50;;;8.70;99.90;;;;;;5525491;25;20458;-57
2024/04/19 07:03:00;;;;;;;4.60;4.20;;;8.80;99.90;;;;;;5525725;25;20470;-58
2024/04/19 07:05:29;;;;;;;4.73;4.10;;;8.80;99.90;;;;;;5525511;25;20843;-57
2024/04/19 07:08:00;;;;;;;4.17;3.70;;;8.80;99.90;;;;;;5529175;25;20510;-57
2024/04/19 07:10:29;;;;;;;3.37;3.17;;;8.90;99.90;;;;;;5529230;25;20466;-58
2024/04/19 07:12:57;;;;;;;4.57;4.07;;;8.90;99.90;;;;;;5529471;25;20563;-58
2024/04/19 07:15:26;;;;;;;4.40;4.10;;;8.90;99.90;;;;;;5529157;25;20449;-57
2024/04/19 07:17:54;;;;;;;3.90;3.60;;;9.00;99.90;;;;;;5529154;25;20445;-58
2024/04/19 07:20:23;;;;;;;4.10;3.70;;;9.10;99.90;;;;;;5528990;25;20811;-58
2024/04/19 07:22:53;;;;;;;4.27;3.97;;;9.10;99.90;;;;;;5529254;25;20449;-57
2024/04/19 07:25:25;;;;;;;3.97;3.67;;;9.20;99.90;;;;;;5529293;25;20503;-58
2024/04/19 07:27:53;;;;;;;4.37;3.97;;;9.20;99.90;;;;;;5529438;25;20446;-57
2024/04/19 07:30:22;;;;;;;3.53;3.33;;;9.30;99.90;;;;;;5528662;25;20470;-57
2024/04/19 07:32:51;;;;;;;5.03;4.63;;;9.30;99.90;;;;;;5528697;25;20982;-58
2024/04/19 07:35:19;;;;;;;3.90;3.60;;;9.40;99.90;;;;;;5528795;25;20498;-58
2024/04/19 07:37:48;;;;;;;4.10;3.70;;;9.40;99.90;;;;;;5528690;25;20975;-57
2024/04/19 07:40:16;;;;;;;3.97;3.67;;;9.40;99.90;;;;;;5528890;25;20571;-58
2024/04/19 07:42:47;;;;;;;4.00;3.63;;;9.40;99.90;;;;;;5528781;25;20458;-58
2024/04/19 07:45:18;;;;;;;4.20;3.90;;;9.40;99.90;;;;;;5528591;25;20445;-58
2024/04/19 07:47:48;;;;;;;6.90;4.50;;;9.50;99.90;;;;;;5529066;25;20462;-58
2024/04/19 07:50:16;;;;;;;4.50;4.10;;;9.50;99.90;;;;;;5528600;25;20563;-58
2024/04/19 07:52:45;;;;;;;5.30;4.80;;;9.60;99.90;;;;;;5528295;25;20461;-58
2024/04/19 07:55:14;;;;;;;4.50;4.10;;;9.60;99.90;;;;;;5528285;25;20461;-58
2024/04/19 07:57:43;;;;;;;4.40;4.10;;;9.60;99.90;;;;;;5528458;25;20509;-58
2024/04/19 08:00:16;;;;;;;4.93;4.53;;;9.60;99.90;;;;;;5528504;25;20474;-58
2024/04/19 08:02:45;;;;;;;5.00;4.60;;;9.70;99.90;;;;;;5528653;25;20497;-59
2024/04/19 08:05:17;;;;;;;6.00;5.00;;;9.80;99.90;;;;;;5528387;25;20457;-58
2024/04/19 08:07:45;;;;;;;4.57;4.17;;;9.80;99.90;;;;;;5528235;25;20450;-58
2024/04/19 08:10:16;;;;;;;5.40;4.90;;;9.80;99.90;;;;;;5527819;25;20502;-58
2024/04/19 08:12:44;;;;;;;5.27;4.87;;;9.90;99.90;;;;;;5528015;25;20580;-57
2024/04/19 08:15:15;;;;;;;5.67;5.17;;;10.00;99.90;;;;;;5527921;25;20454;-56
2024/04/19 08:17:44;;;;;;;5.47;5.07;;;10.10;99.90;;;;;;5527725;25;20510;-57
2024/04/19 08:20:12;;;;;;;5.40;4.90;;;10.20;99.90;;;;;;5527988;25;21124;-58
2024/04/19 08:22:41;;;;;;;5.70;5.20;;;10.30;99.90;;;;;;5528059;25;20551;-58
2024/04/19 08:25:09;;;;;;;7.60;5.57;;;10.30;99.90;;;;;;5528094;25;20991;-57
2024/04/19 08:27:38;;;;;;;5.47;5.07;;;10.30;99.90;;;;;;5527952;25;20450;-58
2024/04/19 08:30:07;;;;;;;6.00;5.50;;;10.30;99.90;;;;;;5527837;25;20458;-57
2024/04/19 08:33:16;;;;;;;5.43;5.03;;;10.30;99.90;;;;;;5528258;26;20450;-59
2024/04/19 08:35:55;;;;;;;6.10;5.50;;;10.40;99.90;;;;;;5528097;25;20458;-58
2024/04/19 08:38:23;;;;;;;6.90;6.33;;;10.40;99.90;;;;;;5528049;25;20446;-57
2024/04/19 08:40:58;;;;;;;6.90;6.30;;;10.50;99.90;;;;;;5527537;25;20470;-58
2024/04/19 08:43:28;;;;;;;9.80;6.40;;;10.50;99.90;;;;;;5527801;25;20501;-57
2024/04/19 08:45:57;;;;;;;7.67;6.97;;;10.50;99.90;;;;;;5527601;25;20555;-58
2024/04/19 08:48:27;;;;;;;8.00;7.20;;;10.50;99.90;;;;;;5528007;25;20458;-57
2024/04/19 08:51:01;;;;;;;7.60;6.90;;;10.50;99.90;;;;;;5527936;25;20454;-57
2024/04/19 08:53:31;;;;;;;6.90;6.30;;;10.70;99.90;;;;;;5527901;25;20465;-58
2024/04/19 08:56:01;;;;;;;7.23;6.63;;;10.80;99.90;;;;;;5527866;25;20498;-58
2024/04/19 08:58:31;;;;;;;6.83;6.27;;;10.90;99.90;;;;;;5527726;25;20458;-58
2024/04/19 09:01:00;;;;;;;6.20;5.70;;;10.90;99.90;;;;;;5527430;25;20514;-57
2024/04/19 09:03:29;;;;;;;7.23;6.57;;;10.90;99.90;;;;;;5527725;25;20449;-59
2024/04/19 09:06:01;;;;;;;7.50;6.90;;;10.90;99.90;;;;;;5527611;25;20470;-57
2024/04/19 09:08:31;;;;;;;7.33;6.73;;;10.90;99.90;;;;;;5527508;25;20511;-57
2024/04/19 09:11:00;;;;;;;8.10;7.40;;;10.90;99.90;;;;;;5527394;25;20568;-58
2024/04/19 09:13:28;;;;;;;8.33;7.53;;;10.90;99.90;;;;;;5527460;25;20462;-57
2024/04/19 09:15:56;;;;;;;8.70;7.90;;;10.90;99.90;;;;;;5527110;25;20453;-57
2024/04/19 09:18:25;;;;;;;7.97;7.27;;;10.90;99.90;;;;;;5527342;25;20458;-57
2024/04/19 09:20:54;;;;;;;9.27;8.37;;;10.90;99.90;;;;;;5527197;25;20481;-58
2024/04/19 09:23:25;;;;;;;11.60;8.50;;;10.90;99.90;;;;;;5527662;25;20450;-58
2024/04/19 09:25:59;;;;;;;13.87;9.17;;;10.90;99.90;;;;;;5527427;25;20582;-58
2024/04/19 09:28:30;;;;;;;9.97;8.23;;;10.90;99.90;;;;;;5526722;25;20446;-57
2024/04/19 09:30:59;;;;;;;8.83;8.13;;;11.00;99.90;;;;;;5526949;25;20466;-57
2024/04/19 09:33:27;;;;;;;9.63;8.83;;;11.00;99.90;;;;;;5527467;25;20536;-58
2024/04/19 09:35:57;;;;;;;8.53;7.70;;;11.00;99.90;;;;;;5527292;25;20441;-58
2024/04/19 09:38:30;;;;;;;9.63;8.47;;;11.00;99.90;;;;;;5527074;25;20626;-57
2024/04/19 09:41:00;;;;;;;8.80;8.00;;;11.10;99.90;;;;;;5527098;25;20482;-58
2024/04/19 09:43:29;;;;;;;10.97;8.47;;;11.10;99.90;;;;;;5527185;25;20490;-58
2024/04/19 09:45:59;;;;;;;9.10;8.20;;;11.10;99.90;;;;;;5526695;25;20454;-58
2024/04/19 09:48:31;;;;;;;9.27;8.47;;;11.20;99.90;;;;;;5527091;25;20549;-58
2024/04/19 09:51:00;;;;;;;10.73;8.77;;;11.40;99.90;;;;;;5527078;25;20458;-58
2024/04/19 09:53:35;;;;;;;7.83;7.13;;;11.70;99.90;;;;;;5527006;25;20453;-58
2024/04/19 09:56:13;;;;;;;7.90;7.20;;;12.10;99.90;;;;;;5527251;25;20563;-58
2024/04/19 09:58:42;;;;;;;8.97;6.97;;;12.30;99.90;;;;;;5527175;25;20446;-58
2024/04/19 10:01:11;;;;;;;10.30;7.80;;;12.50;99.90;;;;;;5526649;25;20470;-57
2024/04/19 10:03:40;;;;;;;6.97;6.33;;;12.50;99.90;;;;;;5526813;25;20559;-59
2024/04/19 10:06:10;;;;;;;12.00;6.80;;;12.40;99.90;;;;;;5526899;25;20995;-59
2024/04/19 10:08:41;;;;;;;5.53;5.03;;;12.30;99.90;;;;;;5526789;25;20466;-58
2024/04/19 10:11:10;;;;;;;7.10;5.20;;;12.30;99.90;;;;;;5527001;25;20450;-58
2024/04/19 10:13:38;;;;;;;5.40;4.83;;;12.30;99.90;;;;;;5526824;25;20563;-58
2024/04/19 10:16:08;;;;;;;8.53;5.50;;;12.40;99.90;;;;;;5526637;25;20502;-58
2024/04/19 10:18:37;;;;;;;7.60;5.80;;;12.40;99.90;;;;;;5526839;25;20565;-59
2024/04/19 10:21:07;;;;;;;7.50;6.80;;;12.40;99.90;;;;;;5526690;25;20454;-58
2024/04/19 10:23:38;;;;;;;14.97;6.27;;;12.40;99.90;;;;;;5526831;25;20494;-58
2024/04/19 10:26:09;;;;;;;6.03;5.53;;;12.20;99.90;;;;;;5529514;25;20807;-58
2024/04/19 10:28:38;;;;;;;8.90;5.07;;;12.10;99.90;;;;;;5528778;25;20991;-57
2024/04/19 10:31:08;;;;;;;5.80;4.97;;;12.00;99.90;;;;;;5527147;25;20478;-58
2024/04/19 10:33:36;;;;;;;6.63;4.20;;;11.80;99.90;;;;;;5526729;25;20450;-57
2024/04/19 10:36:05;;;;;;;3.90;3.60;;;11.70;99.90;;;;;;5526327;25;20450;-58
2024/04/19 10:38:34;;;;;;;4.47;3.90;;;11.70;99.90;;;;;;5526011;25;20560;-59
2024/04/19 10:41:03;;;;;;;9.43;4.30;;;11.60;99.90;;;;;;5524582;25;20454;-59
2024/04/19 10:43:34;;;;;;;5.90;4.43;;;11.60;99.90;;;;;;5526142;25;20446;-59
2024/04/19 10:46:03;;;;;;;8.07;3.30;;;11.80;99.90;;;;;;5526131;25;20454;-59
2024/04/19 10:48:32;;;;;;;4.80;3.50;;;11.80;99.90;;;;;;5526111;25;21008;-58
2024/04/19 10:51:04;;;;;;;5.07;3.50;;;11.90;99.90;;;;;;5526241;25;20465;-59
2024/04/19 10:53:32;;;;;;;3.40;2.90;;;12.10;99.90;;;;;;5525854;25;20450;-59
2024/04/19 10:56:01;;;;;;;5.10;2.00;;;12.30;99.90;;;;;;5525334;25;20817;-60
2024/04/19 10:58:30;;;;;;;2.00;1.90;;;12.50;99.90;;;;;;5525291;25;20450;-58
2024/04/19 11:01:01;;;;;;;3.40;2.43;;;12.70;99.90;;;;;;5525344;25;20498;-57
2024/04/19 11:03:30;;;;;;;2.70;1.73;;;12.70;99.90;;;;;;5525849;25;20458;-58
2024/04/19 11:05:59;;;;;;;4.30;2.20;;;12.70;99.90;;;;;;5525418;25;20446;-58
2024/04/19 11:08:28;;;;;;;5.10;2.20;;;12.60;99.90;;;;;;5525529;25;20507;-57
2024/04/19 11:10:56;;;;;;;3.47;2.00;;;12.60;99.90;;;;;;5525264;25;20848;-58
2024/04/19 11:13:25;;;;;;;3.80;1.83;;;12.60;99.90;;;;;;5525788;25;20498;-58
2024/04/19 11:15:53;;;;;;;2.67;2.00;;;12.60;99.90;;;;;;5525413;25;20443;-58
2024/04/19 11:18:25;;;;;;;5.10;2.07;;;12.50;99.90;;;;;;5525097;25;20502;-58
2024/04/19 11:20:54;;;;;;;5.43;2.30;;;12.40;99.90;;;;;;5525342;25;20457;-59
2024/04/19 11:23:22;;;;;;;9.47;2.77;;;12.40;99.90;;;;;;5525317;25;20495;-59
2024/04/19 11:25:51;;;;;;;2.30;2.03;;;12.30;99.90;;;;;;5525263;25;20570;-57
2024/04/19 11:28:19;;;;;;;2.93;1.47;;;12.30;99.90;;;;;;5525358;25;20551;-58
2024/04/19 11:30:48;;;;;;;2.47;1.80;;;12.20;99.90;;;;;;5525241;25;20469;-58
2024/04/19 11:33:16;;;;;;;2.13;1.63;;;12.10;99.90;;;;;;5525419;25;20555;-58
2024/04/19 11:35:48;;;;;;;3.00;1.50;;;12.10;99.90;;;;;;5525176;25;20571;-58
2024/04/19 11:38:17;;;;;;;2.23;1.27;;;12.30;99.90;;;;;;5525097;25;20461;-58
2024/04/19 11:40:46;;;;;;;2.63;2.10;;;12.40;99.90;;;;;;5524850;25;20462;-57
2024/04/19 11:43:14;;;;;;;2.13;1.37;;;12.40;99.90;;;;;;5525200;25;20491;-57
2024/04/19 11:45:44;;;;;;;1.90;1.23;;;12.40;99.90;;;;;;5524960;25;20458;-57
2024/04/19 11:48:21;;;;;;;3.10;1.50;;;12.50;99.90;;;;;;5525057;25;20503;-57
2024/04/19 11:50:52;;;;;;;2.93;1.33;;;12.40;99.90;;;;;;5525048;25;20449;-58
2024/04/19 11:53:21;;;;;;;3.23;1.23;;;12.40;99.90;;;;;;5527643;25;20566;-59
2024/04/19 11:55:50;;;;;;;3.00;1.37;;;12.60;99.90;;;;;;5529255;25;20453;-58
2024/04/19 11:58:19;;;;;;;2.00;1.00;;;12.60;99.90;;;;;;5529128;25;20450;-58
2024/04/19 12:00:47;;;;;;;1.57;1.00;;;12.60;99.90;;;;;;5528537;25;20470;-58
2024/04/19 12:03:16;;;;;;;3.27;0.90;;;12.50;99.90;;;;;;5528868;25;20466;-59
2024/04/19 12:05:44;;;;;;;1.17;1.00;;;12.40;99.90;;;;;;5528658;25;20462;-59
2024/04/19 12:08:16;;;;;;;3.50;1.10;;;12.30;99.90;;;;;;5528617;25;20462;-58
2024/04/19 12:10:44;;;;;;;1.30;1.10;;;12.30;99.90;;;;;;5528208;25;21023;-58
2024/04/19 12:13:13;;;;;;;2.47;1.00;;;12.30;99.90;;;;;;5528311;25;20877;-59
2024/04/19 12:15:41;;;;;;;2.93;1.00;;;12.30;99.90;;;;;;5528182;25;20453;-58
2024/04/19 12:18:09;;;;;;;2.33;0.97;;;12.40;99.90;;;;;;5528370;25;20450;-58
2024/04/19 12:20:38;;;;;;;4.00;0.97;;;13.30;99.90;;;;;;5528190;25;20466;-59
2024/04/19 12:23:06;;;;;;;1.60;0.90;;;14.40;99.90;;;;;;5528363;25;20842;-58
2024/04/19 12:25:37;;;;;;;1.53;0.70;;;14.90;99.90;;;;;;5528408;25;20560;-58
2024/04/19 12:28:06;;;;;;;2.30;0.93;;;14.90;99.20;;;;;;5528465;25;20571;-59
2024/04/19 12:30:35;;;;;;;3.67;1.27;;;14.70;98.40;;;;;;5527941;25;20567;-58
2024/04/19 12:33:01;;;;;;;5.40;1.30;;;14.30;98.20;;;;;;5528161;25;20505;-57
2024/04/19 12:35:31;;;;;;;4.30;1.90;;;13.90;99.30;;;;;;5528103;25;20446;-58
2024/04/19 12:37:58;;;;;;;4.10;1.23;;;13.70;99.90;;;;;;5528006;25;20450;-58
2024/04/19 12:40:26;;;;;;;6.50;2.47;;;13.50;99.90;;;;;;5527790;25;20466;-58
2024/04/19 12:42:57;;;;;;;3.37;1.00;;;13.40;99.90;;;;;;5527953;25;20446;-58
2024/04/19 12:45:26;;;;;;;4.10;1.30;;;13.50;99.90;;;;;;5527724;25;20988;-58
2024/04/19 12:48:04;;;;;;;2.70;1.13;;;14.60;99.90;;;;;;5527537;25;20558;-57
2024/04/19 12:50:33;;;;;;;2.27;1.20;;;16.30;99.50;;;;;;5527804;25;20454;-57
2024/04/19 12:53:01;;;;;;;3.20;1.50;;;17.30;94.20;;;;;;5527901;25;20502;-58
2024/04/19 12:55:30;;;;;;;4.53;1.13;;;17.80;93.80;;;;;;5527757;25;20454;-58
2024/04/19 12:58:01;;;;;;;3.47;1.60;;;18.10;91.40;;;;;;5527730;25;20458;-57
2024/04/19 13:00:30;;;;;;;4.93;1.90;;;18.20;90.60;;;;;;5527493;25;20815;-57
2024/04/19 13:02:59;;;;;;;2.50;1.33;;;17.80;90.30;;;;;;5527617;25;20555;-58
2024/04/19 13:05:29;;;;;;;3.90;1.50;;;17.40;90.90;;;;;;5526566;25;20990;-57
2024/04/19 13:07:58;;;;;;;8.40;1.57;;;17.80;92.40;;;;;;5527783;25;20532;-58